sensor_id;sensor_type;location;lat;lon;timestamp;P1;durP1;ratioP1;P2;durP2;ratioP2
5507;SDS011;2776;51.046;6.772;2022-10-03T00:02:06;12.80;;;2.60;;
5507;SDS011;2776;51.046;6.772;2022-10-03T00:04:49;9.43;;;3.03;;
5507;SDS011;2776;51.046;6.772;2022-10-03T00:07:42;13.40;;;3.13;;
5507;SDS011;2776;51.046;6.772;2022-10-03T00:10:30;8.23;;;2.90;;
5507;SDS011;2776;51.046;6.772;2022-10-03T00:13:06;11.23;;;2.80;;
5507;SDS011;2776;51.046;6.772;2022-10-03T00:15:48;11.03;;;3.40;;
5507;SDS011;2776;51.046;6.772;2022-10-03T00:18:22;12.10;;;2.67;;
5507;SDS011;2776;51.046;6.772;2022-10-03T00:21:02;12.20;;;2.73;;
5507;SDS011;2776;51.046;6.772;2022-10-03T00:23:40;12.23;;;3.13;;
5507;SDS011;2776;51.046;6.772;2022-10-03T00:26:16;11.10;;;2.70;;
5507;SDS011;2776;51.046;6.772;2022-10-03T00:29:06;7.70;;;2.80;;
5507;SDS011;2776;51.046;6.772;2022-10-03T00:32:00;11.33;;;2.80;;
5507;SDS011;2776;51.046;6.772;2022-10-03T00:34:38;16.33;;;3.07;;
5507;SDS011;2776;51.046;6.772;2022-10-03T00:37:16;11.00;;;2.80;;
5507;SDS011;2776;51.046;6.772;2022-10-03T00:39:53;8.83;;;3.00;;
5507;SDS011;2776;51.046;6.772;2022-10-03T00:45:49;14.87;;;3.20;;
5507;SDS011;2776;51.046;6.772;2022-10-03T00:51:32;15.32;;;4.88;;
5507;SDS011;2776;51.046;6.772;2022-10-03T00:54:11;15.60;;;4.23;;
5507;SDS011;2776;51.046;6.772;2022-10-03T00:56:53;12.40;;;3.93;;
5507;SDS011;2776;51.046;6.772;2022-10-03T00:59:37;15.97;;;3.33;;
5507;SDS011;2776;51.046;6.772;2022-10-03T01:02:33;13.17;;;3.77;;
5507;SDS011;2776;51.046;6.772;2022-10-03T01:05:14;12.40;;;3.80;;
5507;SDS011;2776;51.046;6.772;2022-10-03T01:08:03;14.77;;;5.13;;
5507;SDS011;2776;51.046;6.772;2022-10-03T01:10:52;10.33;;;3.93;;
5507;SDS011;2776;51.046;6.772;2022-10-03T01:13:27;12.33;;;4.63;;
5507;SDS011;2776;51.046;6.772;2022-10-03T01:16:04;11.80;;;4.70;;
5507;SDS011;2776;51.046;6.772;2022-10-03T01:18:40;14.07;;;5.20;;
5507;SDS011;2776;51.046;6.772;2022-10-03T01:21:18;12.27;;;5.90;;
5507;SDS011;2776;51.046;6.772;2022-10-03T01:24:03;16.17;;;5.70;;
5507;SDS011;2776;51.046;6.772;2022-10-03T01:26:51;12.80;;;5.70;;
5507;SDS011;2776;51.046;6.772;2022-10-03T01:29:23;12.13;;;5.73;;
5507;SDS011;2776;51.046;6.772;2022-10-03T01:32:16;16.10;;;5.80;;
5507;SDS011;2776;51.046;6.772;2022-10-03T01:34:51;14.10;;;6.60;;
5507;SDS011;2776;51.046;6.772;2022-10-03T01:37:27;14.53;;;6.00;;
5507;SDS011;2776;51.046;6.772;2022-10-03T01:39:58;11.63;;;5.60;;
5507;SDS011;2776;51.046;6.772;2022-10-03T01:42:38;13.70;;;5.90;;
5507;SDS011;2776;51.046;6.772;2022-10-03T01:45:20;10.33;;;5.73;;
5507;SDS011;2776;51.046;6.772;2022-10-03T01:47:56;11.47;;;5.67;;
5507;SDS011;2776;51.046;6.772;2022-10-03T01:50:29;15.33;;;5.57;;
5507;SDS011;2776;51.046;6.772;2022-10-03T01:53:02;10.90;;;5.30;;
5507;SDS011;2776;51.046;6.772;2022-10-03T01:55:36;15.37;;;5.20;;
5507;SDS011;2776;51.046;6.772;2022-10-03T01:58:18;11.17;;;5.07;;
5507;SDS011;2776;51.046;6.772;2022-10-03T02:00:53;11.67;;;5.53;;
5507;SDS011;2776;51.046;6.772;2022-10-03T02:03:25;14.43;;;5.10;;
5507;SDS011;2776;51.046;6.772;2022-10-03T02:05:56;12.97;;;4.87;;
5507;SDS011;2776;51.046;6.772;2022-10-03T02:08:30;17.33;;;5.27;;
5507;SDS011;2776;51.046;6.772;2022-10-03T02:11:08;11.53;;;5.43;;
5507;SDS011;2776;51.046;6.772;2022-10-03T02:13:39;19.47;;;5.50;;
5507;SDS011;2776;51.046;6.772;2022-10-03T02:16:15;13.10;;;5.17;;
5507;SDS011;2776;51.046;6.772;2022-10-03T02:18:53;13.77;;;4.90;;
5507;SDS011;2776;51.046;6.772;2022-10-03T02:21:25;13.93;;;5.13;;
5507;SDS011;2776;51.046;6.772;2022-10-03T02:24:04;10.10;;;4.10;;
5507;SDS011;2776;51.046;6.772;2022-10-03T02:26:52;14.20;;;4.80;;
5507;SDS011;2776;51.046;6.772;2022-10-03T02:29:45;14.60;;;5.33;;
5507;SDS011;2776;51.046;6.772;2022-10-03T02:35:44;13.43;;;5.27;;
5507;SDS011;2776;51.046;6.772;2022-10-03T02:41:28;10.03;;;4.67;;
5507;SDS011;2776;51.046;6.772;2022-10-03T02:44:20;10.60;;;4.70;;
5507;SDS011;2776;51.046;6.772;2022-10-03T02:59:16;14.23;;;4.80;;
5507;SDS011;2776;51.046;6.772;2022-10-03T03:02:26;10.13;;;4.53;;
5507;SDS011;2776;51.046;6.772;2022-10-03T03:05:28;12.77;;;4.67;;
5507;SDS011;2776;51.046;6.772;2022-10-03T03:11:15;12.00;;;4.47;;
5507;SDS011;2776;51.046;6.772;2022-10-03T03:14:12;11.80;;;4.57;;
5507;SDS011;2776;51.046;6.772;2022-10-03T03:17:10;8.30;;;4.23;;
5507;SDS011;2776;51.046;6.772;2022-10-03T03:19:50;11.23;;;5.20;;
5507;SDS011;2776;51.046;6.772;2022-10-03T03:22:40;8.37;;;4.13;;
5507;SDS011;2776;51.046;6.772;2022-10-03T03:25:26;11.23;;;4.00;;
5507;SDS011;2776;51.046;6.772;2022-10-03T03:28:12;18.20;;;5.03;;
5507;SDS011;2776;51.046;6.772;2022-10-03T03:30:51;9.87;;;4.70;;
5507;SDS011;2776;51.046;6.772;2022-10-03T03:33:31;13.10;;;4.57;;
5507;SDS011;2776;51.046;6.772;2022-10-03T03:36:09;9.43;;;4.20;;
5507;SDS011;2776;51.046;6.772;2022-10-03T03:38:44;12.30;;;4.93;;
5507;SDS011;2776;51.046;6.772;2022-10-03T03:41:23;13.17;;;4.63;;
5507;SDS011;2776;51.046;6.772;2022-10-03T03:44:05;8.20;;;3.50;;
5507;SDS011;2776;51.046;6.772;2022-10-03T03:46:51;5.67;;;3.73;;
5507;SDS011;2776;51.046;6.772;2022-10-03T03:49:37;11.97;;;5.07;;
5507;SDS011;2776;51.046;6.772;2022-10-03T03:52:20;9.43;;;4.53;;
5507;SDS011;2776;51.046;6.772;2022-10-03T03:55:03;10.00;;;3.73;;
5507;SDS011;2776;51.046;6.772;2022-10-03T03:57:50;13.30;;;4.53;;
5507;SDS011;2776;51.046;6.772;2022-10-03T04:00:34;11.63;;;4.63;;
5507;SDS011;2776;51.046;6.772;2022-10-03T04:03:21;11.50;;;4.23;;
5507;SDS011;2776;51.046;6.772;2022-10-03T04:06:03;12.03;;;4.40;;
5507;SDS011;2776;51.046;6.772;2022-10-03T04:09:03;9.63;;;4.87;;
5507;SDS011;2776;51.046;6.772;2022-10-03T04:11:53;13.43;;;3.97;;
5507;SDS011;2776;51.046;6.772;2022-10-03T04:14:36;13.00;;;4.17;;
5507;SDS011;2776;51.046;6.772;2022-10-03T04:17:36;13.23;;;4.23;;
5507;SDS011;2776;51.046;6.772;2022-10-03T04:20:40;9.37;;;4.30;;
5507;SDS011;2776;51.046;6.772;2022-10-03T04:23:22;15.00;;;4.87;;
5507;SDS011;2776;51.046;6.772;2022-10-03T04:26:08;10.43;;;4.40;;
5507;SDS011;2776;51.046;6.772;2022-10-03T04:28:53;7.27;;;4.23;;
5507;SDS011;2776;51.046;6.772;2022-10-03T04:31:48;8.93;;;4.57;;
5507;SDS011;2776;51.046;6.772;2022-10-03T04:34:27;13.47;;;4.27;;
5507;SDS011;2776;51.046;6.772;2022-10-03T04:37:16;12.77;;;4.80;;
5507;SDS011;2776;51.046;6.772;2022-10-03T04:39:51;5.67;;;3.73;;
5507;SDS011;2776;51.046;6.772;2022-10-03T04:42:35;9.87;;;4.00;;
5507;SDS011;2776;51.046;6.772;2022-10-03T04:45:18;13.90;;;4.53;;
5507;SDS011;2776;51.046;6.772;2022-10-03T04:47:58;15.73;;;5.00;;
5507;SDS011;2776;51.046;6.772;2022-10-03T04:50:36;13.03;;;5.47;;
5507;SDS011;2776;51.046;6.772;2022-10-03T04:53:18;9.50;;;5.57;;
5507;SDS011;2776;51.046;6.772;2022-10-03T04:55:52;9.87;;;5.13;;
5507;SDS011;2776;51.046;6.772;2022-10-03T04:58:29;13.37;;;6.60;;
5507;SDS011;2776;51.046;6.772;2022-10-03T05:01:05;11.10;;;5.10;;
5507;SDS011;2776;51.046;6.772;2022-10-03T05:03:44;8.53;;;4.97;;
5507;SDS011;2776;51.046;6.772;2022-10-03T05:06:30;10.57;;;4.73;;
5507;SDS011;2776;51.046;6.772;2022-10-03T05:09:05;11.47;;;4.73;;
5507;SDS011;2776;51.046;6.772;2022-10-03T05:11:47;9.60;;;4.13;;
5507;SDS011;2776;51.046;6.772;2022-10-03T05:14:23;13.70;;;4.23;;
5507;SDS011;2776;51.046;6.772;2022-10-03T05:16:59;11.37;;;5.23;;
5507;SDS011;2776;51.046;6.772;2022-10-03T05:19:38;10.77;;;4.27;;
5507;SDS011;2776;51.046;6.772;2022-10-03T05:22:15;8.33;;;4.20;;
5507;SDS011;2776;51.046;6.772;2022-10-03T05:24:56;9.03;;;3.83;;
5507;SDS011;2776;51.046;6.772;2022-10-03T05:27:32;7.80;;;4.47;;
5507;SDS011;2776;51.046;6.772;2022-10-03T05:30:13;13.10;;;5.07;;
5507;SDS011;2776;51.046;6.772;2022-10-03T05:32:43;11.87;;;4.67;;
5507;SDS011;2776;51.046;6.772;2022-10-03T05:35:30;13.40;;;4.40;;
5507;SDS011;2776;51.046;6.772;2022-10-03T05:38:24;6.60;;;4.40;;
5507;SDS011;2776;51.046;6.772;2022-10-03T05:41:02;12.77;;;5.27;;
5507;SDS011;2776;51.046;6.772;2022-10-03T05:43:41;9.47;;;4.57;;
5507;SDS011;2776;51.046;6.772;2022-10-03T05:46:17;8.77;;;3.93;;
5507;SDS011;2776;51.046;6.772;2022-10-03T05:48:55;9.60;;;4.83;;
5507;SDS011;2776;51.046;6.772;2022-10-03T05:51:40;9.87;;;4.80;;
5507;SDS011;2776;51.046;6.772;2022-10-03T05:54:21;13.87;;;4.90;;
5507;SDS011;2776;51.046;6.772;2022-10-03T05:57:18;9.63;;;4.50;;
5507;SDS011;2776;51.046;6.772;2022-10-03T06:00:17;11.23;;;4.33;;
5507;SDS011;2776;51.046;6.772;2022-10-03T06:08:58;10.80;;;4.73;;
5507;SDS011;2776;51.046;6.772;2022-10-03T06:12:03;12.57;;;6.40;;
5507;SDS011;2776;51.046;6.772;2022-10-03T06:14:39;11.17;;;4.90;;
5507;SDS011;2776;51.046;6.772;2022-10-03T06:17:39;8.50;;;4.33;;
5507;SDS011;2776;51.046;6.772;2022-10-03T06:20:27;10.80;;;5.03;;
5507;SDS011;2776;51.046;6.772;2022-10-03T06:23:26;11.83;;;4.30;;
5507;SDS011;2776;51.046;6.772;2022-10-03T06:26:25;13.40;;;4.83;;
5507;SDS011;2776;51.046;6.772;2022-10-03T06:38:52;12.87;;;5.93;;
5507;SDS011;2776;51.046;6.772;2022-10-03T06:42:25;14.67;;;5.50;;
5507;SDS011;2776;51.046;6.772;2022-10-03T06:45:13;9.47;;;6.47;;
5507;SDS011;2776;51.046;6.772;2022-10-03T06:48:06;13.63;;;6.40;;
5507;SDS011;2776;51.046;6.772;2022-10-03T06:51:10;14.30;;;7.13;;
5507;SDS011;2776;51.046;6.772;2022-10-03T06:53:58;14.00;;;7.33;;
5507;SDS011;2776;51.046;6.772;2022-10-03T07:00:00;14.33;;;8.17;;
5507;SDS011;2776;51.046;6.772;2022-10-03T07:02:55;18.00;;;9.00;;
5507;SDS011;2776;51.046;6.772;2022-10-03T07:05:54;18.00;;;8.53;;
5507;SDS011;2776;51.046;6.772;2022-10-03T07:08:51;16.37;;;8.17;;
5507;SDS011;2776;51.046;6.772;2022-10-03T07:14:46;14.87;;;7.97;;
5507;SDS011;2776;51.046;6.772;2022-10-03T07:17:39;16.07;;;8.07;;
5507;SDS011;2776;51.046;6.772;2022-10-03T07:20:25;16.20;;;7.07;;
5507;SDS011;2776;51.046;6.772;2022-10-03T07:29:23;13.00;;;7.13;;
5507;SDS011;2776;51.046;6.772;2022-10-03T07:32:10;12.97;;;7.20;;
5507;SDS011;2776;51.046;6.772;2022-10-03T07:35:17;14.67;;;7.60;;
5507;SDS011;2776;51.046;6.772;2022-10-03T07:41:36;15.10;;;7.43;;
5507;SDS011;2776;51.046;6.772;2022-10-03T07:47:48;13.37;;;7.43;;
5507;SDS011;2776;51.046;6.772;2022-10-03T07:56:49;16.77;;;8.13;;
5507;SDS011;2776;51.046;6.772;2022-10-03T07:59:47;15.30;;;7.97;;
5507;SDS011;2776;51.046;6.772;2022-10-03T08:02:34;16.03;;;7.33;;
5507;SDS011;2776;51.046;6.772;2022-10-03T08:05:15;17.53;;;9.40;;
5507;SDS011;2776;51.046;6.772;2022-10-03T08:08:04;14.17;;;6.83;;
5507;SDS011;2776;51.046;6.772;2022-10-03T08:14:05;14.57;;;7.07;;
5507;SDS011;2776;51.046;6.772;2022-10-03T08:16:47;18.47;;;7.40;;
5507;SDS011;2776;51.046;6.772;2022-10-03T08:22:19;11.57;;;7.17;;
5507;SDS011;2776;51.046;6.772;2022-10-03T08:25:06;14.13;;;6.90;;
5507;SDS011;2776;51.046;6.772;2022-10-03T08:27:57;10.60;;;6.43;;
5507;SDS011;2776;51.046;6.772;2022-10-03T08:30:42;12.57;;;6.07;;
5507;SDS011;2776;51.046;6.772;2022-10-03T08:33:37;11.13;;;4.70;;
5507;SDS011;2776;51.046;6.772;2022-10-03T08:36:19;12.93;;;4.80;;
5507;SDS011;2776;51.046;6.772;2022-10-03T08:39:10;14.53;;;4.67;;
5507;SDS011;2776;51.046;6.772;2022-10-03T08:51:11;13.33;;;5.50;;
5507;SDS011;2776;51.046;6.772;2022-10-03T08:57:08;14.73;;;6.20;;
5507;SDS011;2776;51.046;6.772;2022-10-03T09:05:59;15.83;;;6.20;;
5507;SDS011;2776;51.046;6.772;2022-10-03T09:08:56;12.80;;;4.97;;
5507;SDS011;2776;51.046;6.772;2022-10-03T09:11:47;10.87;;;4.70;;
5507;SDS011;2776;51.046;6.772;2022-10-03T09:14:45;15.20;;;6.23;;
5507;SDS011;2776;51.046;6.772;2022-10-03T09:20:28;14.10;;;5.43;;
5507;SDS011;2776;51.046;6.772;2022-10-03T09:29:21;13.43;;;4.57;;
5507;SDS011;2776;51.046;6.772;2022-10-03T09:35:51;13.40;;;4.60;;
5507;SDS011;2776;51.046;6.772;2022-10-03T09:38:55;11.60;;;4.73;;
5507;SDS011;2776;51.046;6.772;2022-10-03T09:41:34;13.77;;;5.03;;
5507;SDS011;2776;51.046;6.772;2022-10-03T09:50:37;15.13;;;6.17;;
5507;SDS011;2776;51.046;6.772;2022-10-03T09:53:30;12.13;;;5.00;;
5507;SDS011;2776;51.046;6.772;2022-10-03T09:56:19;11.77;;;4.50;;
5507;SDS011;2776;51.046;6.772;2022-10-03T09:59:11;17.70;;;4.90;;
5507;SDS011;2776;51.046;6.772;2022-10-03T10:01:51;12.53;;;4.27;;
5507;SDS011;2776;51.046;6.772;2022-10-03T10:04:43;12.20;;;4.43;;
5507;SDS011;2776;51.046;6.772;2022-10-03T10:07:38;10.03;;;3.50;;
5507;SDS011;2776;51.046;6.772;2022-10-03T10:10:36;11.03;;;3.40;;
5507;SDS011;2776;51.046;6.772;2022-10-03T10:13:28;8.80;;;3.17;;
5507;SDS011;2776;51.046;6.772;2022-10-03T10:16:29;9.30;;;3.30;;
5507;SDS011;2776;51.046;6.772;2022-10-03T10:19:25;10.50;;;3.07;;
5507;SDS011;2776;51.046;6.772;2022-10-03T10:25:14;12.67;;;3.20;;
5507;SDS011;2776;51.046;6.772;2022-10-03T10:34:42;8.13;;;2.93;;
5507;SDS011;2776;51.046;6.772;2022-10-03T10:40:36;9.47;;;2.53;;
5507;SDS011;2776;51.046;6.772;2022-10-03T10:47:04;10.57;;;1.87;;
5507;SDS011;2776;51.046;6.772;2022-10-03T10:56:26;8.23;;;1.75;;
5507;SDS011;2776;51.046;6.772;2022-10-03T11:09:09;8.30;;;1.73;;
5507;SDS011;2776;51.046;6.772;2022-10-03T11:24:55;5.50;;;1.60;;
5507;SDS011;2776;51.046;6.772;2022-10-03T11:34:30;6.00;;;1.50;;
5507;SDS011;2776;51.046;6.772;2022-10-03T11:37:23;4.50;;;1.20;;
5507;SDS011;2776;51.046;6.772;2022-10-03T11:40:07;5.30;;;1.60;;
5507;SDS011;2776;51.046;6.772;2022-10-03T11:42:54;6.57;;;1.75;;
5507;SDS011;2776;51.046;6.772;2022-10-03T11:45:31;5.28;;;1.42;;
5507;SDS011;2776;51.046;6.772;2022-10-03T11:48:10;5.78;;;1.10;;
5507;SDS011;2776;51.046;6.772;2022-10-03T11:50:51;4.78;;;1.20;;
5507;SDS011;2776;51.046;6.772;2022-10-03T11:53:32;3.78;;;1.30;;
5507;SDS011;2776;51.046;6.772;2022-10-03T11:59:07;5.78;;;1.20;;
5507;SDS011;2776;51.046;6.772;2022-10-03T12:01:54;4.88;;;1.50;;
5507;SDS011;2776;51.046;6.772;2022-10-03T12:04:34;5.38;;;1.10;;
5507;SDS011;2776;51.046;6.772;2022-10-03T12:07:14;2.85;;;1.33;;
5507;SDS011;2776;51.046;6.772;2022-10-03T12:10:09;4.57;;;1.40;;
5507;SDS011;2776;51.046;6.772;2022-10-03T12:12:43;3.58;;;1.13;;
5507;SDS011;2776;51.046;6.772;2022-10-03T12:15:25;3.90;;;1.20;;
5507;SDS011;2776;51.046;6.772;2022-10-03T12:18:01;3.95;;;1.20;;
5507;SDS011;2776;51.046;6.772;2022-10-03T12:20:33;1.38;;;0.85;;
5507;SDS011;2776;51.046;6.772;2022-10-03T12:23:22;5.20;;;1.50;;
5507;SDS011;2776;51.046;6.772;2022-10-03T12:25:57;6.65;;;1.67;;
5507;SDS011;2776;51.046;6.772;2022-10-03T12:28:27;4.28;;;1.50;;
5507;SDS011;2776;51.046;6.772;2022-10-03T12:31:01;6.03;;;1.65;;
5507;SDS011;2776;51.046;6.772;2022-10-03T12:33:39;5.22;;;1.63;;
5507;SDS011;2776;51.046;6.772;2022-10-03T12:36:17;4.97;;;1.88;;
5507;SDS011;2776;51.046;6.772;2022-10-03T12:38:54;8.77;;;1.73;;
5507;SDS011;2776;51.046;6.772;2022-10-03T12:41:45;10.10;;;1.75;;
5507;SDS011;2776;51.046;6.772;2022-10-03T12:44:24;5.68;;;1.40;;
5507;SDS011;2776;51.046;6.772;2022-10-03T12:47:02;2.90;;;1.05;;
5507;SDS011;2776;51.046;6.772;2022-10-03T12:49:47;4.45;;;1.35;;
5507;SDS011;2776;51.046;6.772;2022-10-03T12:52:22;7.57;;;1.52;;
5507;SDS011;2776;51.046;6.772;2022-10-03T12:54:56;3.70;;;1.20;;
5507;SDS011;2776;51.046;6.772;2022-10-03T12:57:50;6.40;;;1.10;;
5507;SDS011;2776;51.046;6.772;2022-10-03T13:00:22;2.25;;;1.10;;
5507;SDS011;2776;51.046;6.772;2022-10-03T13:02:59;3.92;;;1.08;;
5507;SDS011;2776;51.046;6.772;2022-10-03T13:05:37;6.32;;;1.30;;
5507;SDS011;2776;51.046;6.772;2022-10-03T13:08:41;5.15;;;1.33;;
5507;SDS011;2776;51.046;6.772;2022-10-03T13:11:23;5.68;;;1.48;;
5507;SDS011;2776;51.046;6.772;2022-10-03T13:14:06;3.20;;;1.15;;
5507;SDS011;2776;51.046;6.772;2022-10-03T13:16:48;8.02;;;1.67;;
5507;SDS011;2776;51.046;6.772;2022-10-03T13:19:24;3.90;;;1.20;;
5507;SDS011;2776;51.046;6.772;2022-10-03T13:21:55;5.90;;;1.52;;
5507;SDS011;2776;51.046;6.772;2022-10-03T13:24:31;6.38;;;1.58;;
5507;SDS011;2776;51.046;6.772;2022-10-03T13:27:06;3.35;;;1.10;;
5507;SDS011;2776;51.046;6.772;2022-10-03T13:29:43;4.53;;;1.40;;
5507;SDS011;2776;51.046;6.772;2022-10-03T13:32:16;4.93;;;1.42;;
5507;SDS011;2776;51.046;6.772;2022-10-03T13:35:06;4.80;;;1.30;;
5507;SDS011;2776;51.046;6.772;2022-10-03T13:38:25;5.25;;;1.30;;
5507;SDS011;2776;51.046;6.772;2022-10-03T13:41:27;9.35;;;1.55;;
5507;SDS011;2776;51.046;6.772;2022-10-03T13:43:59;5.75;;;1.30;;
5507;SDS011;2776;51.046;6.772;2022-10-03T13:46:30;4.32;;;1.73;;
5507;SDS011;2776;51.046;6.772;2022-10-03T13:49:08;6.18;;;1.50;;
5507;SDS011;2776;51.046;6.772;2022-10-03T13:51:44;7.43;;;1.40;;
5507;SDS011;2776;51.046;6.772;2022-10-03T13:54:19;4.43;;;1.15;;
5507;SDS011;2776;51.046;6.772;2022-10-03T13:56:54;5.07;;;1.65;;
5507;SDS011;2776;51.046;6.772;2022-10-03T13:59:40;5.65;;;1.63;;
5507;SDS011;2776;51.046;6.772;2022-10-03T14:02:20;4.15;;;1.27;;
5507;SDS011;2776;51.046;6.772;2022-10-03T14:05:12;4.13;;;1.40;;
5507;SDS011;2776;51.046;6.772;2022-10-03T14:07:52;3.35;;;1.10;;
5507;SDS011;2776;51.046;6.772;2022-10-03T14:13:19;3.38;;;1.27;;
5507;SDS011;2776;51.046;6.772;2022-10-03T14:15:57;4.93;;;1.50;;
5507;SDS011;2776;51.046;6.772;2022-10-03T14:18:38;4.03;;;1.48;;
5507;SDS011;2776;51.046;6.772;2022-10-03T14:21:16;5.07;;;1.50;;
5507;SDS011;2776;51.046;6.772;2022-10-03T14:24:04;5.63;;;1.60;;
5507;SDS011;2776;51.046;6.772;2022-10-03T14:26:40;4.32;;;1.63;;
5507;SDS011;2776;51.046;6.772;2022-10-03T14:29:15;4.57;;;1.50;;
5507;SDS011;2776;51.046;6.772;2022-10-03T14:31:50;3.55;;;1.17;;
5507;SDS011;2776;51.046;6.772;2022-10-03T14:34:26;2.75;;;1.58;;
5507;SDS011;2776;51.046;6.772;2022-10-03T14:37:05;3.95;;;1.40;;
5507;SDS011;2776;51.046;6.772;2022-10-03T14:39:39;3.28;;;1.30;;
5507;SDS011;2776;51.046;6.772;2022-10-03T14:42:24;7.60;;;1.65;;
5507;SDS011;2776;51.046;6.772;2022-10-03T14:45:10;7.88;;;1.40;;
5507;SDS011;2776;51.046;6.772;2022-10-03T14:47:46;2.03;;;1.27;;
5507;SDS011;2776;51.046;6.772;2022-10-03T14:50:16;5.38;;;1.45;;
5507;SDS011;2776;51.046;6.772;2022-10-03T14:52:47;4.30;;;1.00;;
5507;SDS011;2776;51.046;6.772;2022-10-03T14:55:19;4.22;;;1.33;;
5507;SDS011;2776;51.046;6.772;2022-10-03T14:57:50;4.43;;;1.30;;
5507;SDS011;2776;51.046;6.772;2022-10-03T15:00:23;5.60;;;1.38;;
5507;SDS011;2776;51.046;6.772;2022-10-03T15:02:54;4.97;;;1.38;;
5507;SDS011;2776;51.046;6.772;2022-10-03T15:05:31;2.97;;;1.00;;
5507;SDS011;2776;51.046;6.772;2022-10-03T15:07:59;3.85;;;0.82;;
5507;SDS011;2776;51.046;6.772;2022-10-03T15:10:28;6.95;;;1.45;;
5507;SDS011;2776;51.046;6.772;2022-10-03T15:12:57;5.90;;;1.60;;
5507;SDS011;2776;51.046;6.772;2022-10-03T15:15:29;6.43;;;1.33;;
5507;SDS011;2776;51.046;6.772;2022-10-03T15:18:00;7.07;;;1.23;;
5507;SDS011;2776;51.046;6.772;2022-10-03T15:20:31;4.60;;;1.17;;
5507;SDS011;2776;51.046;6.772;2022-10-03T15:23:01;4.13;;;1.45;;
5507;SDS011;2776;51.046;6.772;2022-10-03T15:25:31;6.68;;;1.10;;
5507;SDS011;2776;51.046;6.772;2022-10-03T15:28:03;6.68;;;1.55;;
5507;SDS011;2776;51.046;6.772;2022-10-03T15:30:33;5.20;;;1.20;;
5507;SDS011;2776;51.046;6.772;2022-10-03T15:33:04;5.10;;;1.10;;
5507;SDS011;2776;51.046;6.772;2022-10-03T15:35:39;5.00;;;1.38;;
5507;SDS011;2776;51.046;6.772;2022-10-03T15:38:10;3.85;;;1.10;;
5507;SDS011;2776;51.046;6.772;2022-10-03T15:40:42;5.27;;;1.50;;
5507;SDS011;2776;51.046;6.772;2022-10-03T15:43:23;3.35;;;1.25;;
5507;SDS011;2776;51.046;6.772;2022-10-03T15:45:56;7.97;;;1.30;;
5507;SDS011;2776;51.046;6.772;2022-10-03T15:48:25;3.45;;;1.15;;
5507;SDS011;2776;51.046;6.772;2022-10-03T15:50:54;5.80;;;1.57;;
5507;SDS011;2776;51.046;6.772;2022-10-03T15:53:23;4.20;;;1.00;;
5507;SDS011;2776;51.046;6.772;2022-10-03T15:55:53;7.63;;;1.57;;
5507;SDS011;2776;51.046;6.772;2022-10-03T15:58:26;4.73;;;1.10;;
5507;SDS011;2776;51.046;6.772;2022-10-03T16:00:59;3.20;;;1.27;;
5507;SDS011;2776;51.046;6.772;2022-10-03T16:03:32;6.47;;;1.20;;
5507;SDS011;2776;51.046;6.772;2022-10-03T16:06:07;6.10;;;1.57;;
5507;SDS011;2776;51.046;6.772;2022-10-03T16:08:40;3.27;;;1.50;;
5507;SDS011;2776;51.046;6.772;2022-10-03T16:11:19;4.20;;;1.10;;
5507;SDS011;2776;51.046;6.772;2022-10-03T16:13:50;4.10;;;1.53;;
5507;SDS011;2776;51.046;6.772;2022-10-03T16:16:30;6.73;;;1.90;;
5507;SDS011;2776;51.046;6.772;2022-10-03T16:19:18;4.47;;;1.80;;
5507;SDS011;2776;51.046;6.772;2022-10-03T16:21:49;4.77;;;1.63;;
5507;SDS011;2776;51.046;6.772;2022-10-03T16:24:26;5.07;;;1.83;;
5507;SDS011;2776;51.046;6.772;2022-10-03T16:27:00;6.37;;;1.60;;
5507;SDS011;2776;51.046;6.772;2022-10-03T16:29:33;5.60;;;2.00;;
5507;SDS011;2776;51.046;6.772;2022-10-03T16:32:03;4.87;;;2.23;;
5507;SDS011;2776;51.046;6.772;2022-10-03T16:34:35;6.73;;;2.50;;
5507;SDS011;2776;51.046;6.772;2022-10-03T16:37:14;7.07;;;2.30;;
5507;SDS011;2776;51.046;6.772;2022-10-03T16:39:42;4.53;;;1.70;;
5507;SDS011;2776;51.046;6.772;2022-10-03T16:42:16;5.17;;;1.90;;
5507;SDS011;2776;51.046;6.772;2022-10-03T16:44:49;5.57;;;2.33;;
5507;SDS011;2776;51.046;6.772;2022-10-03T16:47:24;4.97;;;1.70;;
5507;SDS011;2776;51.046;6.772;2022-10-03T16:49:57;5.53;;;2.07;;
5507;SDS011;2776;51.046;6.772;2022-10-03T16:52:44;4.90;;;1.37;;
5507;SDS011;2776;51.046;6.772;2022-10-03T16:55:14;5.23;;;2.10;;
5507;SDS011;2776;51.046;6.772;2022-10-03T16:57:44;6.97;;;1.67;;
5507;SDS011;2776;51.046;6.772;2022-10-03T17:00:15;6.00;;;2.00;;
5507;SDS011;2776;51.046;6.772;2022-10-03T17:02:46;6.33;;;1.67;;
5507;SDS011;2776;51.046;6.772;2022-10-03T17:05:15;6.33;;;1.83;;
5507;SDS011;2776;51.046;6.772;2022-10-03T17:07:44;5.80;;;1.53;;
5507;SDS011;2776;51.046;6.772;2022-10-03T17:10:20;3.83;;;1.57;;
5507;SDS011;2776;51.046;6.772;2022-10-03T17:12:54;3.73;;;1.30;;
5507;SDS011;2776;51.046;6.772;2022-10-03T17:15:25;5.37;;;2.03;;
5507;SDS011;2776;51.046;6.772;2022-10-03T17:17:55;8.80;;;6.20;;
5507;SDS011;2776;51.046;6.772;2022-10-03T17:20:32;5.80;;;3.90;;
5507;SDS011;2776;51.046;6.772;2022-10-03T17:23:06;8.37;;;4.00;;
5507;SDS011;2776;51.046;6.772;2022-10-03T17:25:40;4.53;;;1.77;;
5507;SDS011;2776;51.046;6.772;2022-10-03T17:28:24;5.63;;;1.63;;
5507;SDS011;2776;51.046;6.772;2022-10-03T17:30:56;6.87;;;2.03;;
5507;SDS011;2776;51.046;6.772;2022-10-03T17:33:30;5.50;;;2.40;;
5507;SDS011;2776;51.046;6.772;2022-10-03T17:36:14;6.47;;;3.40;;
5507;SDS011;2776;51.046;6.772;2022-10-03T17:39:02;6.17;;;3.10;;
5507;SDS011;2776;51.046;6.772;2022-10-03T17:41:32;9.23;;;2.30;;
5507;SDS011;2776;51.046;6.772;2022-10-03T17:44:12;8.27;;;2.37;;
5507;SDS011;2776;51.046;6.772;2022-10-03T17:46:45;4.77;;;2.30;;
5507;SDS011;2776;51.046;6.772;2022-10-03T17:49:23;6.43;;;2.50;;
5507;SDS011;2776;51.046;6.772;2022-10-03T17:52:02;6.40;;;2.37;;
5507;SDS011;2776;51.046;6.772;2022-10-03T17:54:31;5.60;;;1.53;;
5507;SDS011;2776;51.046;6.772;2022-10-03T17:57:03;4.33;;;1.80;;
5507;SDS011;2776;51.046;6.772;2022-10-03T17:59:39;7.17;;;2.33;;
5507;SDS011;2776;51.046;6.772;2022-10-03T18:02:13;5.30;;;2.17;;
5507;SDS011;2776;51.046;6.772;2022-10-03T18:04:44;5.40;;;2.50;;
5507;SDS011;2776;51.046;6.772;2022-10-03T18:07:19;5.57;;;2.97;;
5507;SDS011;2776;51.046;6.772;2022-10-03T18:09:49;5.23;;;2.90;;
5507;SDS011;2776;51.046;6.772;2022-10-03T18:12:20;4.40;;;2.70;;
5507;SDS011;2776;51.046;6.772;2022-10-03T18:15:00;4.27;;;2.17;;
5507;SDS011;2776;51.046;6.772;2022-10-03T18:18:06;7.00;;;2.23;;
5507;SDS011;2776;51.046;6.772;2022-10-03T18:20:58;5.30;;;1.93;;
5507;SDS011;2776;51.046;6.772;2022-10-03T18:23:32;6.57;;;2.50;;
5507;SDS011;2776;51.046;6.772;2022-10-03T18:26:09;10.60;;;3.20;;
5507;SDS011;2776;51.046;6.772;2022-10-03T18:28:44;8.50;;;5.03;;
5507;SDS011;2776;51.046;6.772;2022-10-03T18:31:21;7.67;;;5.30;;
5507;SDS011;2776;51.046;6.772;2022-10-03T18:33:51;9.80;;;5.93;;
5507;SDS011;2776;51.046;6.772;2022-10-03T18:36:22;14.73;;;7.87;;
5507;SDS011;2776;51.046;6.772;2022-10-03T18:38:53;25.43;;;15.13;;
5507;SDS011;2776;51.046;6.772;2022-10-03T18:41:23;27.20;;;15.63;;
5507;SDS011;2776;51.046;6.772;2022-10-03T18:43:51;23.97;;;13.27;;
5507;SDS011;2776;51.046;6.772;2022-10-03T18:46:24;18.10;;;11.73;;
5507;SDS011;2776;51.046;6.772;2022-10-03T18:48:55;13.40;;;7.80;;
5507;SDS011;2776;51.046;6.772;2022-10-03T18:51:29;13.07;;;6.97;;
5507;SDS011;2776;51.046;6.772;2022-10-03T18:54:00;10.70;;;5.40;;
5507;SDS011;2776;51.046;6.772;2022-10-03T18:56:30;10.37;;;5.93;;
5507;SDS011;2776;51.046;6.772;2022-10-03T18:59:05;9.97;;;4.07;;
5507;SDS011;2776;51.046;6.772;2022-10-03T19:01:39;5.97;;;2.83;;
5507;SDS011;2776;51.046;6.772;2022-10-03T19:04:17;4.37;;;2.17;;
5507;SDS011;2776;51.046;6.772;2022-10-03T19:06:49;7.20;;;2.10;;
5507;SDS011;2776;51.046;6.772;2022-10-03T19:09:21;4.23;;;2.40;;
5507;SDS011;2776;51.046;6.772;2022-10-03T19:11:52;3.70;;;2.57;;
5507;SDS011;2776;51.046;6.772;2022-10-03T19:14:27;7.47;;;2.13;;
5507;SDS011;2776;51.046;6.772;2022-10-03T19:16:59;7.73;;;2.60;;
5507;SDS011;2776;51.046;6.772;2022-10-03T19:19:51;5.20;;;2.47;;
5507;SDS011;2776;51.046;6.772;2022-10-03T19:22:22;7.50;;;2.67;;
5507;SDS011;2776;51.046;6.772;2022-10-03T19:24:53;5.43;;;2.90;;
5507;SDS011;2776;51.046;6.772;2022-10-03T19:27:23;5.93;;;2.43;;